createdAt,value
2023-03-29T00:01:35.220Z,100852.81
2023-03-29T00:06:38.974Z,100862.66
2023-03-29T00:11:43.494Z,100856.97
2023-03-29T00:16:46.866Z,100857.88
2023-03-29T00:21:49.888Z,100856.66
2023-03-29T00:26:53.945Z,100861.19
2023-03-29T00:31:57.293Z,100865.63
2023-03-29T00:37:00.222Z,100864.75
2023-03-29T00:42:04.555Z,100861.66
2023-03-29T00:47:07.276Z,100857.19
2023-03-29T00:52:09.964Z,100847.94
2023-03-29T00:57:14.741Z,100853.22
2023-03-29T01:02:22.027Z,100851.78
2023-03-29T01:07:28.361Z,100855.31
2023-03-29T01:12:35.828Z,100866.56
2023-03-29T01:17:38.752Z,100869.72
2023-03-29T01:22:54.616Z,100870.84
2023-03-29T01:28:02.300Z,100870.63
2023-03-29T01:33:07.502Z,100880.41
2023-03-29T01:38:14.385Z,100881.09
2023-03-29T01:43:24.773Z,100868.34
2023-03-29T01:48:30.740Z,100865.81
2023-03-29T01:53:37.990Z,100863.16
2023-03-29T01:58:45.829Z,100866.81
2023-03-29T02:03:50.879Z,100871.31
2023-03-29T02:08:54.363Z,100877.47
2023-03-29T02:13:58.745Z,100872.22
2023-03-29T02:19:01.614Z,100870.84
2023-03-29T02:24:07.386Z,100869.03
2023-03-29T02:29:11.688Z,100866.53
2023-03-29T02:34:19.209Z,100877.66
2023-03-29T02:39:25.278Z,100894.69
2023-03-29T02:44:30.918Z,100892.09
2023-03-29T02:49:33.820Z,100894.09
2023-03-29T02:54:43.412Z,100895.91
2023-03-29T02:59:47.445Z,100887.88
2023-03-29T03:04:50.658Z,100883.16
2023-03-29T03:09:53.352Z,100882.16
2023-03-29T03:14:57.541Z,100876.03
2023-03-29T03:20:00.602Z,100872.50
2023-03-29T03:25:04.283Z,100870.09
2023-03-29T03:30:10.885Z,100859.09
2023-03-29T03:35:49.196Z,100852.81
2023-03-29T03:40:56.795Z,100838.28
2023-03-29T03:46:01.905Z,100821.81
2023-03-29T03:51:06.300Z,100816.59
2023-03-29T03:56:11.390Z,100808.94
2023-03-29T04:01:35.544Z,100820.50
2023-03-29T04:06:48.289Z,100826.66
2023-03-29T04:11:56.738Z,100824.94
2023-03-29T04:17:01.383Z,100831.41
2023-03-29T04:22:22.009Z,100825.97
2023-03-29T04:27:25.584Z,100820.63
2023-03-29T04:32:30.507Z,100811.41
2023-03-29T04:37:41.839Z,100805.19
2023-03-29T04:42:47.300Z,100814.94
2023-03-29T04:47:54.029Z,100817.53
2023-03-29T04:52:57.131Z,100806.59
2023-03-29T04:58:00.619Z,100811.16
2023-03-29T05:03:13.433Z,100805.22
2023-03-29T05:08:25.472Z,100806.31
2023-03-29T05:13:45.975Z,100808.13
2023-03-29T05:18:51.695Z,100808.56
2023-03-29T05:23:55.632Z,100812.91
2023-03-29T05:29:17.133Z,100810.75
2023-03-29T05:34:25.176Z,100805.72
2023-03-29T05:39:34.598Z,100800.75
2023-03-29T05:44:39.797Z,100808.69
2023-03-29T05:49:52.656Z,100804.84
2023-03-29T05:54:58.843Z,100798.94
2023-03-29T06:00:15.121Z,100791.38
2023-03-29T06:05:20.778Z,100792.50
2023-03-29T06:10:36.462Z,100804.59
2023-03-29T06:16:04.169Z,100797.56
2023-03-29T06:21:09.162Z,100803.91
2023-03-29T06:26:12.891Z,100802.41
2023-03-29T06:31:16.483Z,100842.59
2023-03-29T06:36:21.225Z,100842.41
2023-03-29T06:41:24.724Z,100820.25
2023-03-29T06:46:42.405Z,100802.03
2023-03-29T06:51:46.905Z,100780.09
2023-03-29T06:56:49.971Z,100789.56
2023-03-29T07:01:55.115Z,100814.88
2023-03-29T07:07:19.739Z,100823.53
2023-03-29T07:12:26.388Z,100850.06
2023-03-29T07:17:34.063Z,100862.56
2023-03-29T07:22:38.447Z,100857.28
2023-03-29T07:27:42.732Z,100859.47
2023-03-29T07:32:46.989Z,100867.28
2023-03-29T07:38:12.886Z,100882.19
2023-03-29T07:43:21.833Z,100874.16
2023-03-29T07:48:25.297Z,100876.34
2023-03-29T07:53:34.514Z,100867.03
2023-03-29T07:58:40.797Z,100872.78
2023-03-29T08:03:43.717Z,100892.53
2023-03-29T08:08:48.552Z,100897.25
2023-03-29T08:13:53.205Z,100893.63
2023-03-29T08:19:02.001Z,100893.72
2023-03-29T08:24:21.313Z,100915.44
2023-03-29T08:29:29.185Z,100921.63
2023-03-29T08:34:32.439Z,100914.84
2023-03-29T08:39:54.876Z,100918.91
2023-03-29T08:45:17.733Z,100916.56
2023-03-29T08:50:28.697Z,100904.00
2023-03-29T08:55:34.612Z,100915.91
2023-03-29T09:00:59.102Z,100909.19
2023-03-29T09:06:07.631Z,100908.13
2023-03-29T09:11:16.449Z,100912.66
2023-03-29T09:16:24.064Z,100906.94
2023-03-29T09:21:33.547Z,100911.16
2023-03-29T09:26:40.666Z,100903.50
2023-03-29T09:32:08.107Z,100904.75
2023-03-29T09:37:12.232Z,100897.72
2023-03-29T09:42:19.688Z,100899.00
2023-03-29T09:47:25.959Z,100894.31
2023-03-29T09:52:29.327Z,100872.50
2023-03-29T09:57:43.754Z,100868.81
2023-03-29T10:02:53.830Z,100859.88
2023-03-29T10:08:03.289Z,100830.47
2023-03-29T10:13:12.165Z,100831.06
2023-03-29T10:18:16.802Z,100807.41
2023-03-29T10:23:19.793Z,100804.88
2023-03-29T10:28:26.213Z,100792.19
2023-03-29T10:33:29.327Z,100788.63
2023-03-29T10:38:32.113Z,100780.63
2023-03-29T10:43:41.901Z,100820.69
2023-03-29T10:48:47.709Z,100844.44
2023-03-29T10:53:50.726Z,100837.72
2023-03-29T10:59:15.723Z,100841.94
2023-03-29T11:04:23.730Z,100896.00
2023-03-29T11:09:34.800Z,100918.78
2023-03-29T11:14:42.642Z,100942.75
2023-03-29T11:20:01.265Z,100943.00
2023-03-29T11:25:15.600Z,100954.25
2023-03-29T11:30:25.152Z,100969.53
2023-03-29T11:35:39.070Z,100959.31
2023-03-29T11:40:52.348Z,100972.41
2023-03-29T11:45:58.515Z,100978.72
2023-03-29T11:51:04.869Z,100983.50
2023-03-29T11:56:10.137Z,100972.41
2023-03-29T12:01:17.781Z,100956.06
2023-03-29T12:06:23.221Z,100969.69
2023-03-29T12:11:31.071Z,100943.38
2023-03-29T12:16:38.690Z,100924.00
2023-03-29T12:21:42.847Z,100939.59
2023-03-29T12:27:12.450Z,100927.13
2023-03-29T12:32:30.137Z,100937.47
2023-03-29T12:37:48.652Z,100930.66
2023-03-29T12:43:16.826Z,100890.28
2023-03-29T12:48:41.500Z,100881.00
2023-03-29T12:53:46.243Z,100858.09
2023-03-29T12:59:06.559Z,100837.88
2023-03-29T13:04:19.806Z,100777.63
2023-03-29T13:09:24.111Z,100757.84
2023-03-29T13:14:29.950Z,100743.59
2023-03-29T13:19:37.226Z,100712.59
2023-03-29T13:24:54.784Z,100707.06
2023-03-29T13:30:09.119Z,100686.13
2023-03-29T13:35:19.228Z,100672.84
2023-03-29T13:40:29.498Z,100662.44
2023-03-29T13:45:33.534Z,100666.03
2023-03-29T13:50:40.279Z,100646.47
2023-03-29T13:55:47.196Z,100634.19
2023-03-29T14:00:53.454Z,100618.38
2023-03-29T14:06:01.578Z,100615.63
2023-03-29T14:11:06.799Z,100591.44
2023-03-29T14:16:10.939Z,100574.56
2023-03-29T14:21:15.636Z,100572.03
2023-03-29T14:26:20.238Z,100553.63
2023-03-29T14:31:25.093Z,100550.34
2023-03-29T14:36:32.255Z,100552.50
2023-03-29T14:41:36.899Z,100554.19
2023-03-29T14:46:40.124Z,100560.81
2023-03-29T14:51:44.677Z,100564.53
2023-03-29T14:56:47.956Z,100562.25
2023-03-29T15:01:50.996Z,100559.47
2023-03-29T15:06:55.065Z,100552.91
2023-03-29T15:11:59.417Z,100550.84
2023-03-29T15:17:04.454Z,100542.34
2023-03-29T15:22:11.194Z,100538.03
2023-03-29T15:27:15.772Z,100538.03
2023-03-29T15:32:23.130Z,100540.78
2023-03-29T15:37:27.333Z,100526.50
2023-03-29T15:42:31.410Z,100516.00
2023-03-29T15:47:34.634Z,100501.44
2023-03-29T15:52:39.551Z,100487.47
2023-03-29T15:57:44.024Z,100489.44
2023-03-29T16:02:46.877Z,100474.31
2023-03-29T16:07:51.114Z,100464.75
2023-03-29T16:12:53.843Z,100454.97
2023-03-29T16:17:56.620Z,100446.78
2023-03-29T16:23:00.986Z,100441.56
2023-03-29T16:28:04.794Z,100435.44
2023-03-29T16:33:08.596Z,100427.28
2023-03-29T16:38:13.014Z,100426.28
2023-03-29T16:43:17.016Z,100431.34
2023-03-29T16:48:20.385Z,100426.59
2023-03-29T16:53:24.480Z,100423.97
2023-03-29T16:58:27.780Z,100438.53
2023-03-29T17:03:30.695Z,100442.00
2023-03-29T17:08:34.897Z,100455.03
2023-03-29T17:13:37.824Z,100458.31
2023-03-29T17:18:40.663Z,100461.72
2023-03-29T17:23:44.752Z,100466.78
2023-03-29T17:28:47.496Z,100472.97
2023-03-29T17:33:51.948Z,100481.38
2023-03-29T17:38:56.150Z,100492.63
2023-03-29T17:43:58.876Z,100509.97
2023-03-29T17:49:01.628Z,100537.84
2023-03-29T17:54:06.085Z,100537.72
2023-03-29T17:59:08.871Z,100536.63
2023-03-29T18:04:11.665Z,100548.13
2023-03-29T18:09:15.818Z,100552.22
2023-03-29T18:14:18.691Z,100546.94
2023-03-29T18:19:21.556Z,100557.41
2023-03-29T18:24:26.087Z,100567.91
2023-03-29T18:29:28.980Z,100565.03
2023-03-29T18:34:31.778Z,100564.09
2023-03-29T18:39:35.930Z,100586.06
2023-03-29T18:44:40.212Z,100584.22
2023-03-29T18:49:43.160Z,100584.22
2023-03-29T18:54:47.283Z,100577.19
2023-03-29T18:59:50.052Z,100569.09
2023-03-29T19:04:52.835Z,100539.81
2023-03-29T19:09:57.165Z,100542.34
2023-03-29T19:14:59.904Z,100524.28
2023-03-29T19:20:03.382Z,100518.84
2023-03-29T19:25:09.414Z,100529.41
2023-03-29T19:30:13.348Z,100526.59
2023-03-29T19:35:16.380Z,100521.13
2023-03-29T19:40:20.943Z,100521.94
2023-03-29T19:45:24.097Z,100511.31
2023-03-29T19:50:27.272Z,100505.19
2023-03-29T19:55:31.380Z,100507.69
2023-03-29T20:00:34.145Z,100504.06
2023-03-29T20:05:37.157Z,100498.84
2023-03-29T20:10:41.476Z,100494.13
2023-03-29T20:15:46.642Z,100492.44
2023-03-29T20:20:49.735Z,100491.34
2023-03-29T20:25:53.840Z,100493.16
2023-03-29T20:30:56.608Z,100503.47
2023-03-29T20:35:59.849Z,100495.38
2023-03-29T20:41:05.311Z,100503.25
2023-03-29T20:46:14.559Z,100509.06
2023-03-29T20:51:18.113Z,100509.91
2023-03-29T20:56:22.194Z,100522.31
2023-03-29T21:01:24.928Z,100534.56
2023-03-29T21:06:27.893Z,100532.09
2023-03-29T21:11:31.982Z,100547.69
2023-03-29T21:16:34.764Z,100564.31
2023-03-29T21:21:37.545Z,100565.44
2023-03-29T21:26:41.756Z,100568.16
2023-03-29T21:31:44.500Z,100563.53
2023-03-29T21:36:47.334Z,100568.03
2023-03-29T21:41:51.458Z,100575.00
2023-03-29T21:46:54.364Z,100562.50
2023-03-29T21:51:57.456Z,100559.94
2023-03-29T21:57:01.650Z,100558.78
2023-03-29T22:02:04.426Z,100551.59
2023-03-29T22:07:08.277Z,100549.13
2023-03-29T22:12:12.406Z,100537.59
2023-03-29T22:17:15.962Z,100527.00
2023-03-29T22:22:18.720Z,100530.59
2023-03-29T22:27:24.039Z,100516.31
2023-03-29T22:32:26.971Z,100522.72
2023-03-29T22:37:29.946Z,100513.38
2023-03-29T22:42:34.059Z,100510.66
2023-03-29T22:47:36.862Z,100508.03
2023-03-29T22:52:39.635Z,100505.91
2023-03-29T22:57:44.624Z,100509.34
2023-03-29T23:02:47.407Z,100521.84
2023-03-29T23:07:50.485Z,100502.88
2023-03-29T23:12:54.593Z,100510.97
2023-03-29T23:17:57.359Z,100515.41
2023-03-29T23:23:00.453Z,100502.84
2023-03-29T23:28:04.781Z,100504.41
2023-03-29T23:33:10.302Z,100489.47
2023-03-29T23:38:13.441Z,100480.84
2023-03-29T23:43:17.981Z,100468.00
2023-03-29T23:48:21.141Z,100475.00
2023-03-29T23:53:24.140Z,100468.88
2023-03-29T23:58:28.702Z,100465.28
